Time,TemperatureF,DewpointF,PressureIn,WindDirection,WindDirectionDegrees,WindSpeedMPH,WindSpeedGustMPH,Humidity,HourlyPrecipIn,Conditions,Clouds,dailyrainin,SolarRadiationWatts/m^2,SoftwareType,DateUTC
2013-02-24 00:00:00,26.0,18.0,-100.00,WSW,247,6.0,-999.0,71,-99.99,,,-99.99,0.000000,,2013-02-24 05:00:00,
2013-02-24 00:42:00,26.0,18.0,-100.00,WSW,247,6.0,-999.0,71,-99.99,,,-99.99,0.000000,,2013-02-24 05:42:00,
2013-02-24 00:52:00,26.0,18.0,-100.00,WSW,247,6.0,-999.0,71,-99.99,,,-99.99,0.000000,,2013-02-24 05:52:00,
2013-02-24 03:00:00,27.0,19.0,-100.00,West,270,7.0,-999.0,71,-99.99,,,-99.99,0.000000,,2013-02-24 08:00:00,
2013-02-24 03:42:00,27.0,19.0,-100.00,West,270,7.0,-999.0,71,-99.99,,,-99.99,0.000000,,2013-02-24 08:42:00,
2013-02-24 03:54:00,27.0,19.0,-100.00,West,270,7.0,-999.0,71,-99.99,,,-99.99,0.000000,,2013-02-24 08:54:00,
2013-02-24 06:00:00,27.0,21.0,-100.00,West,270,5.0,-999.0,76,-99.99,,,-99.99,0.000000,,2013-02-24 11:00:00,
2013-02-24 06:42:00,27.0,21.0,-100.00,West,270,5.0,-999.0,76,-99.99,,,-99.99,0.000000,,2013-02-24 11:42:00,
2013-02-24 06:53:00,27.0,21.0,-100.00,West,270,5.0,-999.0,76,-99.99,,,-99.99,0.000000,,2013-02-24 11:53:00,
2013-02-24 09:00:00,24.0,19.0,-100.00,SW,225,5.0,-999.0,81,-99.99,,,-99.99,55.680000,,2013-02-24 14:00:00,
2013-02-24 09:45:00,24.0,19.0,-100.00,SW,225,5.0,-999.0,81,-99.99,,,-99.99,55.680000,,2013-02-24 14:45:00,
2013-02-24 09:54:00,24.0,19.0,-100.00,SW,225,5.0,-999.0,81,-99.99,,,-99.99,55.680000,,2013-02-24 14:54:00,
2013-02-24 12:00:00,32.0,22.0,-100.00,West,270,7.0,-999.0,68,-99.99,,,-99.99,563.760010,,2013-02-24 17:00:00,
2013-02-24 12:42:00,32.0,22.0,-100.00,West,270,7.0,-999.0,68,-99.99,,,-99.99,563.760010,,2013-02-24 17:42:00,
2013-02-24 12:53:00,32.0,22.0,-100.00,West,270,7.0,-999.0,68,-99.99,,,-99.99,563.760010,,2013-02-24 17:53:00,
2013-02-24 15:00:00,33.0,23.0,-100.00,West,270,6.0,-999.0,66,-99.99,,,-99.99,484.880005,,2013-02-24 20:00:00,
2013-02-24 15:42:00,33.0,23.0,-100.00,West,270,6.0,-999.0,66,-99.99,,,-99.99,484.880005,,2013-02-24 20:42:00,
2013-02-24 15:52:00,33.0,23.0,-100.00,West,270,6.0,-999.0,66,-99.99,,,-99.99,484.880005,,2013-02-24 20:52:00,
2013-02-24 18:00:00,35.0,22.0,-100.00,NW,315,1.0,-999.0,60,-99.99,,,-99.99,132.240005,,2013-02-24 23:00:00,
2013-02-24 18:42:00,35.0,22.0,-100.00,NW,315,1.0,-999.0,60,-99.99,,,-99.99,132.240005,,2013-02-24 23:42:00,
2013-02-24 18:52:00,35.0,22.0,-100.00,NW,315,1.0,-999.0,60,-99.99,,,-99.99,132.240005,,2013-02-24 23:52:00,
2013-02-24 21:00:00,24.0,20.0,-100.00,ESE,112,0.0,-999.0,83,-99.99,,,-99.99,0.000000,,2013-02-25 02:00:00,
2013-02-24 21:42:00,24.0,20.0,-100.00,ESE,112,0.0,-999.0,83,-99.99,,,-99.99,0.000000,,2013-02-25 02:42:00,
2013-02-24 21:52:00,24.0,20.0,-100.00,ESE,112,0.0,-999.0,83,-99.99,,,-99.99,0.000000,,2013-02-25 02:52:00,